Time;durP1;ratioP1;P1;durP2;ratioP2;P2;SDS_P1;SDS_P2;PMS_P1;PMS_P2;Temp;Humidity;BMP_temperature;BMP_pressure;BME280_temperature;BME280_humidity;BME280_pressure;Samples;Min_cycle;Max_cycle;Signal;HPM_P1;HPM_P2
2021/10/22 00:00:03;;;;;;;;;;;;;;;6.34;89.65;96829.16;30001;983;1885;-68
2021/10/22 00:00:34;;;;;;;;;;;;;;;6.32;89.80;96831.31;30001;983;1880;-67
2021/10/22 00:01:05;;;;;;;;;;;;;;;6.31;89.69;96832.38;30001;983;1871;-66
2021/10/22 00:01:36;;;;;;;;;;;;;;;6.30;89.74;96833.44;30001;983;1872;-68
2021/10/22 00:02:07;;;;;;;;;;;;;;;6.28;89.70;96836.41;30001;983;1885;-67
2021/10/22 00:02:38;;;;;;;;;;;;;;;6.27;89.88;96833.97;30001;983;1881;-67
2021/10/22 00:03:09;;;;;;;;;;;;;;;6.25;89.71;96830.75;30001;983;1885;-68
2021/10/22 00:03:40;;;;;;;;;;;;;;;6.23;89.62;96838.31;30001;983;1881;-68
2021/10/22 00:04:11;;;;;;;;;;;;;;;6.22;89.59;96834.00;30001;983;1885;-68
2021/10/22 00:04:41;;;;;;;;;;;;;;;6.21;89.83;96835.88;30001;983;1881;-67
2021/10/22 00:05:12;;;;;;;;;;;;;;;6.22;89.69;96837.50;30001;982;1872;-67
2021/10/22 00:05:43;;;;;;;;;;;;;;;6.20;89.79;96841.53;30001;982;1872;-68
2021/10/22 00:06:14;;;;;;;;;;;;;;;6.18;89.57;96841.78;30001;982;1885;-68
2021/10/22 00:06:45;;;;;;;;;;;;;;;6.17;89.86;96834.78;30001;982;1881;-67
2021/10/22 00:07:16;;;;;;;;;;;;;;;6.17;89.79;96844.75;30001;982;1885;-66
2021/10/22 00:07:47;;;;;;;;;;;;;;;6.16;90.01;96830.47;30001;983;1880;-67
2021/10/22 00:08:17;;;;;;;;;;;;;;;6.15;89.94;96842.31;30001;983;1885;-67
2021/10/22 00:08:48;;;;;;;;;;;;;;;6.14;90.13;96843.41;30001;983;1880;-67
2021/10/22 00:09:19;;;;;;;;;;;;;;;6.14;90.05;96847.97;30001;983;1872;-67
2021/10/22 00:09:50;;;;;;;;;;;;;;;6.12;89.91;96844.75;30001;986;1863;-67
2021/10/22 00:10:21;;;;;;;;;;;;;;;6.11;90.37;96851.19;30001;983;1885;-67
2021/10/22 00:10:52;;;;;;;;;;;;;;;6.09;90.33;96848.78;30001;983;1881;-66
2021/10/22 00:11:24;;;;;;;;;;;;;;;6.09;90.22;96856.03;30001;983;1884;-67
2021/10/22 00:11:54;;;;;;;;;;;;;;;6.08;90.00;96846.34;30001;985;1872;-67
2021/10/22 00:12:25;;;;;;;;;;;;;;;6.05;90.05;96859.25;30001;982;1885;-67
2021/10/22 00:12:56;;;;;;;;;;;;;;;6.03;90.13;96856.03;30001;982;1881;-67
2021/10/22 00:13:27;;;;;;;;;;;;;;;6.01;89.99;96855.47;30001;982;1885;-67
2021/10/22 00:13:58;;;;;;;;;;;;;;;5.98;90.11;96864.09;30001;982;1881;-68
2021/10/22 00:14:29;;;;;;;;;;;;;;;5.97;90.00;96857.06;30001;982;1872;-69
2021/10/22 00:15:00;;;;;;;;;;;;;;;5.96;90.15;96855.44;30001;983;1871;-68
2021/10/22 00:15:31;;;;;;;;;;;;;;;5.97;89.97;96861.66;30001;983;1884;-69
2021/10/22 00:16:04;;;;;;;;;;;;;;;5.94;89.96;96857.59;30001;983;1867;-68
2021/10/22 00:16:35;;;;;;;;;;;;;;;5.93;89.93;96860.56;30001;983;1876;-67
2021/10/22 00:17:06;;;;;;;;;;;;;;;5.91;90.09;96852.75;30001;983;1880;-67
2021/10/22 00:17:37;;;;;;;;;;;;;;;5.91;90.26;96863.50;30001;983;1878;-68
2021/10/22 00:18:08;;;;;;;;;;;;;;;5.90;90.34;96856.50;30001;983;1880;-67
2021/10/22 00:18:39;;;;;;;;;;;;;;;5.90;90.27;96851.13;30001;983;1885;-66
2021/10/22 00:19:10;;;;;;;;;;;;;;;5.90;90.40;96855.69;30001;982;1881;-67
2021/10/22 00:19:41;;;;;;;;;;;;;;;5.90;90.30;96861.88;30001;982;1885;-67
2021/10/22 00:20:12;;;;;;;;;;;;;;;5.89;90.08;96862.97;30001;982;1881;-67
2021/10/22 00:20:43;;;;;;;;;;;;;;;5.89;90.26;96860.28;30001;982;1872;-67
2021/10/22 00:21:14;;;;;;;;;;;;;;;5.89;90.09;96859.50;30001;982;1872;-68
2021/10/22 00:21:44;;;;;;;;;;;;;;;5.88;90.11;96864.03;30001;982;1886;-68
2021/10/22 00:22:16;;;;;;;;;;;;;;;5.85;90.06;96856.47;30001;982;1881;-67
2021/10/22 00:22:47;;;;;;;;;;;;;;;5.86;90.22;96866.19;30001;983;1884;-67
2021/10/22 00:23:17;;;;;;;;;;;;;;;5.88;90.25;96855.16;30001;983;1880;-68
2021/10/22 00:23:48;;;;;;;;;;;;;;;5.87;89.86;96862.41;30001;983;1885;-68
2021/10/22 00:24:19;;;;;;;;;;;;;;;5.88;90.29;96863.22;30001;983;1881;-69
2021/10/22 00:24:50;;;;;;;;;;;;;;;5.88;89.91;96868.59;30001;983;1885;-52
2021/10/22 00:25:20;;;;;;;;;;;;;;;5.88;89.95;96869.41;30001;983;1868;-69
2021/10/22 00:25:51;;;;;;;;;;;;;;;5.87;89.94;96867.78;30001;983;1863;-68
2021/10/22 00:26:22;;;;;;;;;;;;;;;5.87;90.09;96873.19;30001;983;1881;-68
2021/10/22 00:26:53;;;;;;;;;;;;;;;5.86;90.17;96871.56;30001;982;1885;-69
2021/10/22 00:27:23;;;;;;;;;;;;;;;5.85;90.12;96875.31;30001;982;1881;-69
2021/10/22 00:27:54;;;;;;;;;;;;;;;5.85;90.25;96875.31;30001;982;1885;-69
2021/10/22 00:28:25;;;;;;;;;;;;;;;5.84;90.30;96876.41;30001;982;1881;-68
2021/10/22 00:28:56;;;;;;;;;;;;;;;5.83;90.07;96874.78;30001;982;1885;-53
2021/10/22 00:29:27;;;;;;;;;;;;;;;5.81;89.97;96876.91;30001;982;1881;-69
2021/10/22 00:29:58;;;;;;;;;;;;;;;5.81;90.10;96879.62;30001;982;1885;-69
2021/10/22 00:30:29;;;;;;;;;;;;;;;5.80;90.27;96877.19;30001;983;1880;-68
2021/10/22 00:31:00;;;;;;;;;;;;;;;5.80;90.13;96885.25;30001;983;1872;-68
2021/10/22 00:31:31;;;;;;;;;;;;;;;5.77;90.49;96878.50;30001;983;1871;-67
2021/10/22 00:32:03;;;;;;;;;;;;;;;5.77;90.08;96878.50;30001;983;1885;-66
2021/10/22 00:32:34;;;;;;;;;;;;;;;5.76;90.13;96876.91;30001;983;1880;-67
2021/10/22 00:33:05;;;;;;;;;;;;;;;5.78;90.08;96873.94;30001;983;1885;-68
2021/10/22 00:33:36;;;;;;;;;;;;;;;5.77;90.37;96878.50;30001;983;1867;-68
2021/10/22 00:34:07;;;;;;;;;;;;;;;5.77;90.29;96872.31;30001;983;1876;-68
2021/10/22 00:34:37;;;;;;;;;;;;;;;5.76;89.94;96876.91;30001;982;1881;-68
2021/10/22 00:35:08;;;;;;;;;;;;;;;5.76;90.23;96882.28;30001;982;1885;-69
2021/10/22 00:35:40;;;;;;;;;;;;;;;5.75;90.15;96877.16;30001;982;1881;-68
2021/10/22 00:36:11;;;;;;;;;;;;;;;5.75;90.10;96886.03;30001;982;1885;-68
2021/10/22 00:36:42;;;;;;;;;;;;;;;5.72;90.02;96881.19;30001;982;1833;-67
2021/10/22 00:37:12;;;;;;;;;;;;;;;5.71;89.92;96879.56;30001;982;1872;-68
2021/10/22 00:37:43;;;;;;;;;;;;;;;5.71;90.23;96879.56;30001;983;1871;-68
2021/10/22 00:38:14;;;;;;;;;;;;;;;5.71;90.01;96885.75;30001;983;1884;-68
2021/10/22 00:38:46;;;;;;;;;;;;;;;5.70;90.09;96878.75;30001;983;1880;-68
2021/10/22 00:39:16;;;;;;;;;;;;;;;5.70;90.48;96878.75;30001;983;1885;-69
2021/10/22 00:39:47;;;;;;;;;;;;;;;5.69;90.15;96885.19;30001;983;1880;-68
2021/10/22 00:40:19;;;;;;;;;;;;;;;5.68;90.48;96877.38;30001;983;1885;-68
2021/10/22 00:40:52;;;;;;;;;;;;;;;5.66;90.23;96876.84;30001;983;1881;-68
2021/10/22 00:41:24;;;;;;;;;;;;;;;5.68;90.57;96885.47;30001;983;1885;-67
2021/10/22 00:41:55;;;;;;;;;;;;;;;5.69;90.67;96887.09;30001;982;1868;-68
2021/10/22 00:42:26;;;;;;;;;;;;;;;5.69;90.77;96885.19;30001;982;1876;-68
2021/10/22 00:42:57;;;;;;;;;;;;;;;5.70;90.70;96891.41;30001;982;1881;-68
2021/10/22 00:43:30;;;;;;;;;;;;;;;5.70;90.67;96877.94;30001;982;1885;-69
2021/10/22 00:44:00;;;;;;;;;;;;;;;5.70;90.93;96880.62;30001;982;1881;-68
2021/10/22 00:44:31;;;;;;;;;;;;;;;5.69;90.63;96881.69;30001;983;1871;-69
2021/10/22 00:45:02;;;;;;;;;;;;;;;5.68;90.77;96880.06;30001;983;1871;-67
2021/10/22 00:45:33;;;;;;;;;;;;;;;5.69;90.83;96885.19;30001;983;1884;-68
2021/10/22 00:46:04;;;;;;;;;;;;;;;5.69;90.93;96882.50;30001;983;1880;-68
2021/10/22 00:46:38;;;;;;;;;;;;;;;5.71;91.10;96890.31;30001;983;1885;-68
2021/10/22 00:47:09;;;;;;;;;;;;;;;5.71;91.05;96884.94;30001;983;1881;-69
2021/10/22 00:47:40;;;;;;;;;;;;;;;5.72;90.93;96889.25;30001;983;1885;-67
2021/10/22 00:48:10;;;;;;;;;;;;;;;5.72;91.30;96891.94;30001;983;1867;-67
2021/10/22 00:48:41;;;;;;;;;;;;;;;5.69;90.94;96885.19;30001;983;1876;-68
2021/10/22 00:49:13;;;;;;;;;;;;;;;5.68;91.30;96885.47;30001;959;1905;-68
2021/10/22 00:49:45;;;;;;;;;;;;;;;5.69;91.37;96889.78;30001;982;1885;-68
2021/10/22 00:50:16;;;;;;;;;;;;;;;5.68;91.28;96888.97;30001;982;1881;-68
2021/10/22 00:50:51;;;;;;;;;;;;;;;5.69;91.20;96884.41;30001;982;1885;-67
2021/10/22 00:51:22;;;;;;;;;;;;;;;5.70;91.43;96888.72;30001;982;1881;-67
2021/10/22 00:51:53;;;;;;;;;;;;;;;5.72;91.30;96889.25;30001;983;1884;-75
2021/10/22 00:52:27;;;;;;;;;;;;;;;5.76;91.32;96886.84;30001;983;1867;-67
2021/10/22 00:52:58;;;;;;;;;;;;;;;5.78;91.20;96880.12;30001;983;1876;-67
2021/10/22 00:53:29;;;;;;;;;;;;;;;5.79;90.91;96876.37;30001;983;1880;-67
2021/10/22 00:54:00;;;;;;;;;;;;;;;5.81;90.95;96886.88;30001;983;1885;-67
2021/10/22 00:54:31;;;;;;;;;;;;;;;5.82;90.43;96886.63;30001;983;1811;-67
2021/10/22 00:55:01;;;;;;;;;;;;;;;5.83;90.34;96882.84;30001;983;1885;-68
2021/10/22 00:55:33;;;;;;;;;;;;;;;5.83;90.25;96888.25;30001;983;1880;-70
2021/10/22 00:56:08;;;;;;;;;;;;;;;5.88;90.22;96890.16;30001;983;1885;-68
2021/10/22 00:56:40;;;;;;;;;;;;;;;5.91;89.86;96887.75;30001;983;1881;-74
2021/10/22 00:57:12;;;;;;;;;;;;;;;5.97;89.25;96884.00;30001;982;1885;-69
2021/10/22 00:57:43;;;;;;;;;;;;;;;5.99;89.01;96889.94;30001;982;1868;-68
2021/10/22 00:58:14;;;;;;;;;;;;;;;5.99;88.91;96892.63;30001;982;1876;-72
2021/10/22 00:58:47;;;;;;;;;;;;;;;6.12;88.30;96879.75;30001;982;1881;-68
2021/10/22 00:59:17;;;;;;;;;;;;;;;6.14;87.58;96886.50;30001;982;1885;-68
2021/10/22 00:59:48;;;;;;;;;;;;;;;6.12;87.79;96885.16;30001;983;1880;-68
2021/10/22 01:00:37;;;;;;;;;;;;;;;6.09;87.74;96880.28;30001;983;1884;-68
2021/10/22 01:03:05;;;;;;;;;;;;;;;6.13;88.00;96878.69;30001;983;1867;-69
2021/10/22 01:03:36;;;;;;;;;;;;;;;6.21;87.30;96875.50;30001;983;1867;-66
2021/10/22 01:04:08;;;;;;;;;;;;;;;6.25;86.57;96879.25;30001;983;1881;-72
2021/10/22 01:04:39;;;;;;;;;;;;;;;6.25;86.16;96868.47;30001;982;1872;-68
2021/10/22 01:05:13;;;;;;;;;;;;;;;6.24;86.38;96872.22;30001;982;1872;-77
2021/10/22 01:05:45;;;;;;;;;;;;;;;6.30;86.29;96874.69;30001;982;1872;-72
2021/10/22 01:06:16;;;;;;;;;;;;;;;6.34;86.01;96872.28;30001;982;1872;-68
2021/10/22 01:06:47;;;;;;;;;;;;;;;6.40;85.21;96873.91;30001;982;1886;-65
2021/10/22 01:07:18;;;;;;;;;;;;;;;6.44;84.20;96872.28;30001;983;1880;-69
2021/10/22 01:07:49;;;;;;;;;;;;;;;6.41;84.33;96867.44;30001;983;1885;-70
2021/10/22 01:08:20;;;;;;;;;;;;;;;6.36;84.99;96864.72;30001;983;1880;-69
2021/10/22 01:08:52;;;;;;;;;;;;;;;6.33;84.85;96870.66;30001;983;1885;-72
2021/10/22 01:09:23;;;;;;;;;;;;;;;6.34;85.20;96867.69;30001;983;1880;-71
2021/10/22 01:09:54;;;;;;;;;;;;;;;6.37;84.59;96866.34;30001;983;1884;-79
2021/10/22 01:10:25;;;;;;;;;;;;;;;6.37;84.50;96877.13;30001;983;1881;-69
2021/10/22 01:10:56;;;;;;;;;;;;;;;6.35;84.23;96873.88;30001;983;1872;-69
2021/10/22 01:11:27;;;;;;;;;;;;;;;6.33;84.26;96881.44;30001;983;1872;-68
2021/10/22 01:11:58;;;;;;;;;;;;;;;6.37;84.90;96882.53;30001;982;1886;-74
2021/10/22 01:12:29;;;;;;;;;;;;;;;6.40;84.41;96876.59;30001;982;1868;-63
2021/10/22 01:13:00;;;;;;;;;;;;;;;6.40;83.95;96876.59;30001;982;1877;-68
2021/10/22 01:13:31;;;;;;;;;;;;;;;6.37;83.77;96871.75;30001;982;1881;-70
2021/10/22 01:14:02;;;;;;;;;;;;;;;6.36;83.97;96878.19;30001;982;1886;-68
2021/10/22 01:14:33;;;;;;;;;;;;;;;6.32;84.29;96877.91;30001;983;1880;-67
2021/10/22 01:15:05;;;;;;;;;;;;;;;6.31;84.88;96884.37;30001;983;1871;-67
2021/10/22 01:15:36;;;;;;;;;;;;;;;6.28;85.05;96884.09;30001;983;1858;-69
2021/10/22 01:16:07;;;;;;;;;;;;;;;6.26;85.38;96880.88;30001;983;1885;-67
2021/10/22 01:16:39;;;;;;;;;;;;;;;6.22;85.75;96886.00;30001;983;1867;-74
2021/10/22 01:17:39;;;;;;;;;;;;;;;6.24;85.82;96883.00;30001;983;1876;-69
2021/10/22 01:18:10;;;;;;;;;;;;;;;6.24;85.86;96881.13;30001;983;1876;-70
2021/10/22 01:18:41;;;;;;;;;;;;;;;6.27;85.54;96887.88;30001;982;1885;-68
2021/10/22 01:19:16;;;;;;;;;;;;;;;6.27;85.45;96887.88;30001;984;1888;-67
2021/10/22 01:19:47;;;;;;;;;;;;;;;6.29;85.60;96891.94;30001;982;1885;-67
2021/10/22 01:20:19;;;;;;;;;;;;;;;6.29;85.46;96883.03;30001;982;1868;-67
2021/10/22 01:20:55;;;;;;;;;;;;;;;6.30;85.41;96892.72;30001;982;1876;-67
2021/10/22 01:21:26;;;;;;;;;;;;;;;6.28;85.67;96890.31;30001;982;1868;-68
2021/10/22 01:21:57;;;;;;;;;;;;;;;6.26;85.65;96895.16;30001;982;1877;-66
2021/10/22 01:22:28;;;;;;;;;;;;;;;6.25;86.27;96884.63;30001;983;1880;-67
2021/10/22 01:22:58;;;;;;;;;;;;;;;6.25;86.09;96890.03;30001;983;1885;-73
2021/10/22 01:23:29;;;;;;;;;;;;;;;6.24;86.10;96893.78;30001;983;1880;-68
2021/10/22 01:24:00;;;;;;;;;;;;;;;6.25;86.16;96887.31;30001;983;1885;-69
2021/10/22 01:24:31;;;;;;;;;;;;;;;6.25;86.30;96890.03;30001;983;1867;-67
2021/10/22 01:25:02;;;;;;;;;;;;;;;6.25;86.07;96890.03;30001;983;1876;-67
2021/10/22 01:25:33;;;;;;;;;;;;;;;6.26;86.42;96892.44;30001;983;1881;-68
2021/10/22 01:26:04;;;;;;;;;;;;;;;6.29;86.49;96891.13;30001;983;1872;-67
2021/10/22 01:26:34;;;;;;;;;;;;;;;6.30;86.37;96892.72;30001;982;1872;-67
2021/10/22 01:27:05;;;;;;;;;;;;;;;6.30;86.22;96893.53;30001;982;1885;-68
2021/10/22 01:27:36;;;;;;;;;;;;;;;6.31;86.60;96888.97;30001;982;1881;-68
2021/10/22 01:28:08;;;;;;;;;;;;;;;6.29;86.35;96885.72;30001;982;1885;-67
2021/10/22 01:28:39;;;;;;;;;;;;;;;6.29;86.83;96891.13;30001;982;1881;-67
2021/10/22 01:29:11;;;;;;;;;;;;;;;6.29;86.89;96891.13;30001;982;1872;-68
2021/10/22 01:29:41;;;;;;;;;;;;;;;6.27;86.95;96893.25;30001;983;1871;-67
2021/10/22 01:30:14;;;;;;;;;;;;;;;6.26;86.86;96897.03;30001;983;1884;-68
2021/10/22 01:30:46;;;;;;;;;;;;;;;6.26;87.15;96897.03;30001;983;1880;-67
2021/10/22 01:31:17;;;;;;;;;;;;;;;6.25;87.14;96895.41;30001;983;1885;-68
2021/10/22 01:31:48;;;;;;;;;;;;;;;6.23;87.12;96892.19;30001;983;1881;-67
2021/10/22 01:32:18;;;;;;;;;;;;;;;6.23;87.14;96903.78;30001;983;1872;-68
2021/10/22 01:32:54;;;;;;;;;;;;;;;6.24;87.30;96894.59;30001;983;1872;-67
2021/10/22 01:33:25;;;;;;;;;;;;;;;6.23;87.12;96897.59;30001;983;1885;-67
2021/10/22 01:33:56;;;;;;;;;;;;;;;6.23;87.51;96900.28;30001;982;1881;-69
2021/10/22 01:34:27;;;;;;;;;;;;;;;6.23;87.67;96892.19;30001;982;1872;-67
2021/10/22 01:34:57;;;;;;;;;;;;;;;6.20;88.23;96887.34;30001;982;1872;-67
2021/10/22 01:35:28;;;;;;;;;;;;;;;6.20;88.38;96895.41;30001;982;1885;-68
2021/10/22 01:35:59;;;;;;;;;;;;;;;6.19;88.65;96899.19;30001;982;1881;-67
2021/10/22 01:36:33;;;;;;;;;;;;;;;6.17;88.57;96894.06;30001;982;1872;-69
2021/10/22 01:37:04;;;;;;;;;;;;;;;6.16;88.58;96895.12;30001;982;1872;-67
2021/10/22 01:37:35;;;;;;;;;;;;;;;6.16;89.03;96894.31;30001;983;1884;-68
2021/10/22 01:38:06;;;;;;;;;;;;;;;6.15;88.79;96895.41;30001;983;1880;-67
2021/10/22 01:38:37;;;;;;;;;;;;;;;6.12;88.30;96888.66;30001;983;1885;-67
2021/10/22 01:39:08;;;;;;;;;;;;;;;6.12;88.57;96890.53;30001;983;1880;-67
2021/10/22 01:39:38;;;;;;;;;;;;;;;6.09;89.14;96897.25;30001;983;1885;-68
2021/10/22 01:40:10;;;;;;;;;;;;;;;6.08;88.97;96894.81;30001;983;1880;-67
2021/10/22 01:40:41;;;;;;;;;;;;;;;6.07;89.30;96894.00;30001;983;1885;-67
2021/10/22 01:41:13;;;;;;;;;;;;;;;6.08;89.53;96889.44;30001;983;1867;-68
2021/10/22 01:41:44;;;;;;;;;;;;;;;6.06;89.29;96892.41;30001;982;1876;-68
2021/10/22 01:42:14;;;;;;;;;;;;;;;6.04;89.44;96895.34;30001;982;1881;-67
2021/10/22 01:42:45;;;;;;;;;;;;;;;6.03;89.21;96892.91;30001;982;1885;-68
2021/10/22 01:43:16;;;;;;;;;;;;;;;6.00;89.42;96893.44;30001;982;1867;-68
2021/10/22 01:43:48;;;;;;;;;;;;;;;5.99;89.24;96892.63;30001;982;1876;-68
2021/10/22 01:44:23;;;;;;;;;;;;;;;6.01;89.45;96889.69;30001;983;1880;-67
2021/10/22 01:44:54;;;;;;;;;;;;;;;6.03;89.24;96887.53;30001;983;1871;-69
2021/10/22 01:45:25;;;;;;;;;;;;;;;6.04;89.30;96894.53;30001;983;1871;-69
2021/10/22 01:45:56;;;;;;;;;;;;;;;6.04;89.32;96895.34;30001;983;1885;-67
2021/10/22 01:46:27;;;;;;;;;;;;;;;6.04;89.52;96897.25;30001;983;1880;-67
2021/10/22 01:46:58;;;;;;;;;;;;;;;6.03;89.63;96891.03;30001;983;1885;-68
2021/10/22 01:47:29;;;;;;;;;;;;;;;6.03;89.76;96898.31;30001;983;1880;-67
2021/10/22 01:48:00;;;;;;;;;;;;;;;6.04;89.34;96894.53;30001;983;1810;-67
2021/10/22 01:48:31;;;;;;;;;;;;;;;6.04;89.48;96897.25;30001;983;1868;-67
2021/10/22 01:49:02;;;;;;;;;;;;;;;6.04;89.77;96903.44;30001;982;1863;-67
2021/10/22 01:49:33;;;;;;;;;;;;;;;6.01;89.74;96901.25;30001;982;1881;-67
2021/10/22 01:50:05;;;;;;;;;;;;;;;5.99;89.47;96903.41;30001;982;1885;-67
2021/10/22 01:50:36;;;;;;;;;;;;;;;5.99;89.72;96895.31;30001;982;1881;-68
2021/10/22 01:51:06;;;;;;;;;;;;;;;6.01;89.36;96901.25;30001;982;1885;-67
2021/10/22 01:51:37;;;;;;;;;;;;;;;6.01;89.29;96906.66;30001;983;1880;-67
2021/10/22 01:52:08;;;;;;;;;;;;;;;6.02;89.13;96900.19;30001;964;1903;-69
2021/10/22 01:52:39;;;;;;;;;;;;;;;6.02;89.27;96902.06;30001;983;1880;-67
2021/10/22 01:53:11;;;;;;;;;;;;;;;6.01;89.16;96903.16;30001;983;1871;-68
2021/10/22 01:53:42;;;;;;;;;;;;;;;6.01;89.10;96900.44;30001;983;1872;-68
2021/10/22 01:54:13;;;;;;;;;;;;;;;6.02;89.31;96902.06;30001;983;1872;-67
2021/10/22 01:54:45;;;;;;;;;;;;;;;6.00;89.44;96894.25;30001;983;1872;-67
2021/10/22 01:55:16;;;;;;;;;;;;;;;6.00;89.25;96905.03;30001;983;1885;-66
2021/10/22 01:55:47;;;;;;;;;;;;;;;5.99;89.56;96903.41;30001;983;1880;-68
2021/10/22 01:56:18;;;;;;;;;;;;;;;5.99;89.64;96899.91;30001;983;1885;-66
2021/10/22 01:56:49;;;;;;;;;;;;;;;5.98;89.34;96901.78;30001;982;1868;-67
2021/10/22 01:57:20;;;;;;;;;;;;;;;5.95;89.36;96896.91;30001;982;1876;-66
2021/10/22 01:57:51;;;;;;;;;;;;;;;5.94;89.52;96905.25;30001;982;1881;-69
2021/10/22 01:58:21;;;;;;;;;;;;;;;5.93;89.23;96901.75;30001;982;1885;-68
2021/10/22 01:58:52;;;;;;;;;;;;;;;5.93;89.29;96901.75;30001;982;1868;-67
2021/10/22 01:59:24;;;;;;;;;;;;;;;5.93;89.64;96901.75;30001;983;1863;-67
2021/10/22 01:59:54;;;;;;;;;;;;;;;5.92;89.46;96900.13;30001;983;1880;-68
2021/10/22 02:00:25;;;;;;;;;;;;;;;5.94;89.33;96899.87;30001;983;1871;-67
2021/10/22 02:00:56;;;;;;;;;;;;;;;5.93;89.51;96903.66;30001;983;1872;-67
2021/10/22 02:01:27;;;;;;;;;;;;;;;5.93;89.45;96904.44;30001;983;1885;-66
2021/10/22 02:01:57;;;;;;;;;;;;;;;5.93;89.30;96892.88;30001;983;1867;-67
2021/10/22 02:02:28;;;;;;;;;;;;;;;5.93;89.29;96907.16;30001;983;1876;-66
2021/10/22 02:02:59;;;;;;;;;;;;;;;5.93;89.53;96909.03;30001;983;1880;-67
2021/10/22 02:03:33;;;;;;;;;;;;;;;5.93;89.30;96907.16;30001;983;1885;-68
2021/10/22 02:04:04;;;;;;;;;;;;;;;5.91;89.62;96911.97;30001;982;1881;-67
2021/10/22 02:04:35;;;;;;;;;;;;;;;5.91;89.74;96906.59;30001;982;1872;-67
2021/10/22 02:05:06;;;;;;;;;;;;;;;5.89;89.42;96902.56;30001;982;1872;-68
2021/10/22 02:05:37;;;;;;;;;;;;;;;5.88;89.31;96900.91;30001;982;1885;-66
2021/10/22 02:06:08;;;;;;;;;;;;;;;5.87;89.53;96900.13;30001;982;1881;-66
2021/10/22 02:06:39;;;;;;;;;;;;;;;5.87;89.26;96905.50;30001;983;1884;-68
2021/10/22 02:07:10;;;;;;;;;;;;;;;5.85;89.55;96913.03;30001;983;1880;-68
2021/10/22 02:07:41;;;;;;;;;;;;;;;5.83;89.53;96907.09;30001;983;1885;-69
2021/10/22 02:08:12;;;;;;;;;;;;;;;5.82;89.70;96908.16;30001;983;1867;-68
2021/10/22 02:08:43;;;;;;;;;;;;;;;5.80;89.52;96909.50;30001;983;1876;-66
2021/10/22 02:09:15;;;;;;;;;;;;;;;5.79;89.59;96914.06;30001;983;1880;-67
2021/10/22 02:09:45;;;;;;;;;;;;;;;5.78;89.56;96909.75;30001;983;1885;-68
2021/10/22 02:10:16;;;;;;;;;;;;;;;5.79;89.68;96908.69;30001;983;1881;-69
2021/10/22 02:10:47;;;;;;;;;;;;;;;5.79;89.24;96916.75;30001;983;1885;-67
2021/10/22 02:11:18;;;;;;;;;;;;;;;5.79;89.28;96910.56;30001;983;1881;-67
2021/10/22 02:11:49;;;;;;;;;;;;;;;5.75;89.32;96910.28;30001;982;1872;-69
2021/10/22 02:12:20;;;;;;;;;;;;;;;5.75;89.25;96912.97;30001;982;1872;-68
2021/10/22 02:12:51;;;;;;;;;;;;;;;5.72;89.10;96905.41;30001;982;1885;-67
2021/10/22 02:13:22;;;;;;;;;;;;;;;5.69;89.27;96914.00;30001;982;1881;-67
2021/10/22 02:13:53;;;;;;;;;;;;;;;5.68;89.30;96917.75;30001;982;1885;-69
2021/10/22 02:14:24;;;;;;;;;;;;;;;5.66;89.27;96914.53;30001;983;1880;-67
2021/10/22 02:14:55;;;;;;;;;;;;;;;5.65;89.20;96915.59;30001;983;1871;-68
2021/10/22 02:15:26;;;;;;;;;;;;;;;5.64;89.17;96911.28;30001;983;1871;-66
2021/10/22 02:15:57;;;;;;;;;;;;;;;5.63;89.20;96910.47;30001;983;1885;-68
2021/10/22 02:16:28;;;;;;;;;;;;;;;5.61;89.43;96909.91;30001;983;1880;-68
2021/10/22 02:16:59;;;;;;;;;;;;;;;5.60;88.97;96915.56;30001;983;1885;-67
2021/10/22 02:17:31;;;;;;;;;;;;;;;5.57;88.90;96910.69;30001;983;1881;-67
2021/10/22 02:18:02;;;;;;;;;;;;;;;5.57;89.34;96918.78;30001;983;1885;-67
2021/10/22 02:18:33;;;;;;;;;;;;;;;5.57;89.39;96914.19;30001;982;1867;-67
2021/10/22 02:19:03;;;;;;;;;;;;;;;5.56;89.30;96909.88;30001;982;1876;-67
2021/10/22 02:19:34;;;;;;;;;;;;;;;5.55;89.43;96912.84;30001;982;1881;-66
2021/10/22 02:20:06;;;;;;;;;;;;;;;5.53;89.60;96915.00;30001;982;1885;-67
2021/10/22 02:20:38;;;;;;;;;;;;;;;5.52;89.93;96913.38;30001;982;1881;-68
2021/10/22 02:21:09;;;;;;;;;;;;;;;5.50;89.83;96921.72;30001;982;1885;-66
2021/10/22 02:21:41;;;;;;;;;;;;;;;5.50;89.93;96907.44;30001;983;1880;-68
2021/10/22 02:22:11;;;;;;;;;;;;;;;5.50;89.94;96921.72;30001;983;1884;-67
2021/10/22 02:22:42;;;;;;;;;;;;;;;5.50;90.00;96915.53;30001;983;1867;-68
2021/10/22 02:23:13;;;;;;;;;;;;;;;5.49;90.21;96913.91;30001;970;1883;-68
2021/10/22 02:23:44;;;;;;;;;;;;;;;5.49;89.95;96916.59;30001;983;1880;-68
2021/10/22 02:24:15;;;;;;;;;;;;;;;5.47;89.90;96921.41;30001;983;1885;-67
2021/10/22 02:24:45;;;;;;;;;;;;;;;5.46;90.36;96915.22;30001;983;1881;-67
2021/10/22 02:25:16;;;;;;;;;;;;;;;5.46;90.46;96922.50;30001;983;1872;-68
2021/10/22 02:25:47;;;;;;;;;;;;;;;5.46;90.42;96920.59;30001;982;1859;-67
2021/10/22 02:26:18;;;;;;;;;;;;;;;5.42;90.16;96919.50;30001;982;1885;-68
2021/10/22 02:26:49;;;;;;;;;;;;;;;5.39;90.06;96917.31;30001;985;1871;-67
2021/10/22 02:27:20;;;;;;;;;;;;;;;5.40;90.04;96918.94;30001;982;1885;-68
2021/10/22 02:27:52;;;;;;;;;;;;;;;5.39;89.98;96912.75;30001;982;1881;-66
2021/10/22 02:28:22;;;;;;;;;;;;;;;5.41;90.18;96919.75;30001;982;1885;-67
2021/10/22 02:28:53;;;;;;;;;;;;;;;5.40;90.25;96916.25;30001;982;1868;-68
2021/10/22 02:29:24;;;;;;;;;;;;;;;5.42;90.19;96913.31;30001;983;1876;-66
2021/10/22 02:29:55;;;;;;;;;;;;;;;5.42;90.25;96913.31;30001;983;1880;-54
2021/10/22 02:30:25;;;;;;;;;;;;;;;5.43;90.17;96917.62;30001;983;1871;-67
2021/10/22 02:30:56;;;;;;;;;;;;;;;5.42;90.12;96918.69;30001;983;1872;-67
2021/10/22 02:31:27;;;;;;;;;;;;;;;5.41;89.95;96919.75;30001;983;1885;-69
2021/10/22 02:31:58;;;;;;;;;;;;;;;5.42;90.01;96916.00;30001;983;1880;-67
2021/10/22 02:32:29;;;;;;;;;;;;;;;5.42;89.85;96921.37;30001;983;1885;-68
2021/10/22 02:33:00;;;;;;;;;;;;;;;5.43;89.94;96920.31;30001;983;1881;-68
2021/10/22 02:33:31;;;;;;;;;;;;;;;5.45;89.82;96920.88;30001;982;1872;-67
2021/10/22 02:34:02;;;;;;;;;;;;;;;5.46;90.01;96919.81;30001;982;1872;-68
2021/10/22 02:34:33;;;;;;;;;;;;;;;5.46;89.97;96922.50;30001;982;1885;-66
2021/10/22 02:35:05;;;;;;;;;;;;;;;5.45;89.64;96916.28;30001;982;1881;-68
2021/10/22 02:35:36;;;;;;;;;;;;;;;5.45;89.55;96923.56;30001;982;1872;-67
2021/10/22 02:36:08;;;;;;;;;;;;;;;5.45;89.62;96928.94;30001;982;1859;-69
2021/10/22 02:36:38;;;;;;;;;;;;;;;5.43;89.52;96923.00;30001;982;1885;-67
2021/10/22 02:37:09;;;;;;;;;;;;;;;5.42;89.62;96924.06;30001;983;1880;-67
2021/10/22 02:37:42;;;;;;;;;;;;;;;5.39;89.48;96926.22;30001;983;1885;-67
2021/10/22 02:38:13;;;;;;;;;;;;;;;5.38;89.76;96918.41;30001;983;1880;-67
2021/10/22 02:38:44;;;;;;;;;;;;;;;5.35;89.52;96914.34;30001;983;1885;-67
2021/10/22 02:39:15;;;;;;;;;;;;;;;5.34;89.63;96920.78;30001;983;1880;-67
2021/10/22 02:39:46;;;;;;;;;;;;;;;5.34;89.35;96917.28;30001;983;1885;-67
2021/10/22 02:40:17;;;;;;;;;;;;;;;5.35;89.66;96925.09;30001;983;1867;-68
2021/10/22 02:40:48;;;;;;;;;;;;;;;5.38;89.45;96923.78;30001;983;1876;-66
2021/10/22 02:41:19;;;;;;;;;;;;;;;5.38;89.55;96929.16;30001;982;1867;-66
2021/10/22 02:41:49;;;;;;;;;;;;;;;5.36;89.01;96925.91;30001;982;1876;-67
2021/10/22 02:42:20;;;;;;;;;;;;;;;5.34;89.44;96918.09;30001;968;1903;-66
2021/10/22 02:42:51;;;;;;;;;;;;;;;5.34;89.33;96917.28;30001;982;1885;-67
2021/10/22 02:43:22;;;;;;;;;;;;;;;5.32;89.36;96919.44;30001;982;1881;-68
2021/10/22 02:43:52;;;;;;;;;;;;;;;5.32;89.23;96920.22;30001;982;1885;-67
2021/10/22 02:44:23;;;;;;;;;;;;;;;5.29;89.45;96912.69;30001;983;1880;-67
2021/10/22 02:44:54;;;;;;;;;;;;;;;5.29;89.17;96926.12;30001;983;1884;-68
2021/10/22 02:45:25;;;;;;;;;;;;;;;5.27;89.33;96922.88;30001;983;1880;-68
2021/10/22 02:45:56;;;;;;;;;;;;;;;5.27;89.48;96922.06;30001;983;1885;-68
2021/10/22 02:46:27;;;;;;;;;;;;;;;5.26;89.44;96926.66;30001;983;1867;-68
2021/10/22 02:46:58;;;;;;;;;;;;;;;5.25;89.42;96935.78;30001;983;1876;-68
2021/10/22 02:47:28;;;;;;;;;;;;;;;5.24;89.54;96926.09;30001;983;1880;-67
2021/10/22 02:48:03;;;;;;;;;;;;;;;5.24;89.59;96930.66;30001;983;1885;-67
2021/10/22 02:48:34;;;;;;;;;;;;;;;5.22;89.67;96930.09;30001;982;1881;-66
2021/10/22 02:49:05;;;;;;;;;;;;;;;5.21;89.52;96926.59;30001;973;1891;-67
2021/10/22 02:49:36;;;;;;;;;;;;;;;5.19;89.42;96928.75;30001;982;1872;-68
2021/10/22 02:50:07;;;;;;;;;;;;;;;5.19;89.47;96936.03;30001;982;1885;-67
2021/10/22 02:50:38;;;;;;;;;;;;;;;5.17;89.77;96930.09;30001;982;1881;-66
2021/10/22 02:51:09;;;;;;;;;;;;;;;5.16;89.57;96931.97;30001;983;1884;-67